Time;durP1;ratioP1;P1;durP2;ratioP2;P2;SDS_P1;SDS_P2;PMS_P1;PMS_P2;Temp;Humidity;BMP_temperature;BMP_pressure;BME280_temperature;BME280_humidity;BME280_pressure;Samples;Min_cycle;Max_cycle;Signal;HPM_P1;HPM_P2
2023/05/14 00:02:24;;;;;;;13.40;5.80;;;23.20;56.20;;;;;;5091214;28;20028;-68
2023/05/14 00:04:50;;;;;;;8.20;5.30;;;23.30;56.20;;;;;;5092085;28;20043;-67
2023/05/14 00:07:16;;;;;;;7.32;5.38;;;23.30;56.20;;;;;;5090625;28;21966;-67
2023/05/14 00:09:42;;;;;;;9.07;5.25;;;23.10;56.10;;;;;;5088597;28;20062;-67
2023/05/14 00:12:08;;;;;;;9.52;5.38;;;23.20;56.10;;;;;;5091766;28;20038;-67
2023/05/14 00:14:34;;;;;;;11.73;6.25;;;23.10;56.20;;;;;;5091933;28;20039;-67
2023/05/14 00:17:00;;;;;;;8.75;5.05;;;23.10;56.30;;;;;;5090694;28;20674;-67
2023/05/14 00:19:26;;;;;;;11.75;6.03;;;23.10;56.30;;;;;;5091842;28;20055;-67
2023/05/14 00:21:52;;;;;;;9.85;6.47;;;23.00;56.20;;;;;;5091784;28;20377;-67
2023/05/14 00:24:18;;;;;;;8.93;6.28;;;23.00;56.20;;;;;;5091483;28;20035;-67
2023/05/14 00:26:44;;;;;;;9.60;6.38;;;23.00;56.30;;;;;;5090964;28;20032;-67
2023/05/14 00:29:10;;;;;;;9.90;5.25;;;22.90;56.30;;;;;;5073390;28;20087;-67
2023/05/14 00:31:37;;;;;;;14.30;6.22;;;23.00;56.40;;;;;;5090461;28;20032;-67
2023/05/14 00:34:03;;;;;;;11.52;6.20;;;22.90;56.50;;;;;;5091678;28;20058;-67
2023/05/14 00:36:30;;;;;;;12.43;5.35;;;22.90;56.50;;;;;;5089935;28;20032;-67
2023/05/14 00:38:56;;;;;;;17.33;5.72;;;22.90;56.50;;;;;;5091347;28;20076;-67
2023/05/14 00:41:22;;;;;;;10.13;5.60;;;23.00;56.40;;;;;;5091411;28;20387;-66
2023/05/14 00:43:48;;;;;;;10.55;6.07;;;23.00;56.40;;;;;;5091414;28;20028;-67
2023/05/14 00:46:15;;;;;;;9.85;5.47;;;22.90;56.30;;;;;;5091242;28;20042;-67
2023/05/14 00:48:41;;;;;;;11.48;5.90;;;22.90;56.30;;;;;;5089915;28;20120;-67
2023/05/14 00:51:07;;;;;;;8.55;5.75;;;22.90;56.30;;;;;;5090256;28;20081;-67
2023/05/14 00:53:35;;;;;;;11.35;6.13;;;23.00;56.30;;;;;;5090031;28;20467;-67
2023/05/14 00:56:01;;;;;;;9.68;6.22;;;23.00;56.30;;;;;;5091374;28;20502;-67
2023/05/14 00:58:28;;;;;;;11.52;6.25;;;23.00;56.20;;;;;;5091187;28;20081;-67
2023/05/14 01:00:54;;;;;;;10.75;5.70;;;22.90;56.20;;;;;;5091324;28;20060;-67
2023/05/14 01:03:20;;;;;;;9.30;6.00;;;23.00;56.20;;;;;;5091655;28;20067;-67
2023/05/14 01:06:23;;;;;;;10.98;6.00;;;22.90;56.20;;;;;;5091157;28;20028;-67
2023/05/14 01:09:07;;;;;;;10.48;6.03;;;22.90;56.20;;;;;;5091488;28;20376;-67
2023/05/14 01:11:46;;;;;;;13.10;6.32;;;22.90;56.20;;;;;;5095539;28;20097;-67
2023/05/14 01:14:26;;;;;;;8.05;5.68;;;22.80;56.20;;;;;;5083399;28;20100;-67
2023/05/14 01:16:57;;;;;;;10.55;5.50;;;22.90;56.30;;;;;;5073879;28;20036;-67
2023/05/14 01:19:33;;;;;;;10.73;5.80;;;22.80;56.20;;;;;;5073775;28;20040;-67
2023/05/14 01:21:59;;;;;;;8.52;6.35;;;22.70;56.20;;;;;;5075111;28;20044;-67
2023/05/14 01:24:25;;;;;;;11.95;6.07;;;22.70;56.30;;;;;;5073744;28;20458;-67
2023/05/14 01:26:52;;;;;;;9.27;6.38;;;22.60;56.30;;;;;;5073550;28;20040;-67
2023/05/14 01:29:25;;;;;;;11.07;6.35;;;22.70;56.30;;;;;;5073507;28;20071;-67
2023/05/14 01:31:54;;;;;;;6.55;5.47;;;22.60;56.20;;;;;;5073716;28;20032;-67
2023/05/14 01:34:23;;;;;;;8.98;5.72;;;22.60;56.10;;;;;;5092417;28;20216;-67
2023/05/14 01:36:51;;;;;;;6.95;5.47;;;22.80;56.20;;;;;;5092598;28;20073;-67
2023/05/14 01:39:18;;;;;;;9.32;6.30;;;22.80;56.10;;;;;;5075545;28;20079;-67
2023/05/14 01:41:46;;;;;;;10.05;5.80;;;22.70;56.20;;;;;;5075871;28;20036;-67
2023/05/14 01:44:12;;;;;;;14.02;6.55;;;22.60;56.10;;;;;;5075441;28;20126;-67
2023/05/14 01:46:38;;;;;;;9.00;5.88;;;22.60;56.10;;;;;;5092380;28;20208;-67
2023/05/14 01:49:04;;;;;;;8.90;5.72;;;22.70;56.00;;;;;;5075124;28;20048;-67
2023/05/14 01:51:30;;;;;;;10.02;5.90;;;22.80;56.00;;;;;;5075395;28;20048;-67
2023/05/14 01:53:56;;;;;;;10.02;6.75;;;22.80;56.00;;;;;;5092374;28;20048;-67
2023/05/14 01:56:22;;;;;;;10.15;5.63;;;22.70;55.90;;;;;;5075013;28;20036;-67
2023/05/14 01:58:49;;;;;;;12.88;6.50;;;22.80;55.90;;;;;;5058533;28;20040;-67
2023/05/14 02:01:16;;;;;;;10.10;6.15;;;22.60;55.90;;;;;;5075189;28;20494;-67
2023/05/14 02:03:42;;;;;;;9.13;6.57;;;22.60;55.90;;;;;;5092259;28;20213;-67
2023/05/14 02:06:08;;;;;;;11.85;6.55;;;22.50;55.90;;;;;;5076832;28;20052;-67
2023/05/14 02:08:34;;;;;;;9.10;5.35;;;22.60;55.90;;;;;;5072594;28;20044;-67
2023/05/14 02:11:00;;;;;;;8.73;5.05;;;22.50;56.00;;;;;;5072585;28;20024;-67
2023/05/14 02:13:26;;;;;;;9.32;5.03;;;22.70;56.10;;;;;;5074039;28;20021;-67
2023/05/14 02:15:52;;;;;;;9.48;5.07;;;22.60;56.10;;;;;;5072551;28;20115;-68
2023/05/14 02:18:18;;;;;;;6.30;5.15;;;22.50;56.10;;;;;;5072514;28;20040;-67
2023/05/14 02:20:45;;;;;;;7.97;4.90;;;22.40;56.10;;;;;;5071280;28;20060;-67
2023/05/14 02:23:11;;;;;;;10.75;5.50;;;22.40;56.10;;;;;;5073605;28;20033;-67
2023/05/14 02:25:37;;;;;;;10.15;5.68;;;22.40;56.10;;;;;;5073778;28;20033;-67
2023/05/14 02:28:03;;;;;;;9.68;5.95;;;22.40;56.10;;;;;;5073359;28;20044;-67
2023/05/14 02:30:30;;;;;;;11.05;5.55;;;22.50;56.10;;;;;;5072495;28;20039;-67
2023/05/14 02:32:56;;;;;;;8.55;5.78;;;22.50;56.10;;;;;;5072455;28;20036;-67
2023/05/14 02:35:22;;;;;;;7.57;5.28;;;22.40;56.00;;;;;;5073767;28;20395;-67
2023/05/14 02:37:48;;;;;;;10.50;5.93;;;22.40;56.00;;;;;;5091599;28;20387;-67
2023/05/14 02:40:15;;;;;;;10.35;6.10;;;22.50;56.00;;;;;;5093685;28;20035;-67
2023/05/14 02:42:41;;;;;;;13.13;5.72;;;22.40;55.90;;;;;;5092658;28;20032;-68
2023/05/14 02:45:07;;;;;;;9.18;5.72;;;22.50;55.90;;;;;;5093667;28;20505;-67
2023/05/14 02:47:33;;;;;;;9.65;5.90;;;22.50;55.90;;;;;;5093470;28;20048;-67
2023/05/14 02:49:59;;;;;;;9.18;5.70;;;22.50;55.80;;;;;;5093672;28;20070;-67
2023/05/14 02:52:25;;;;;;;8.18;5.35;;;22.50;55.80;;;;;;5092418;28;20391;-67
2023/05/14 02:54:51;;;;;;;13.82;7.20;;;22.40;55.80;;;;;;5093201;28;20023;-67
2023/05/14 02:57:17;;;;;;;13.07;6.32;;;22.40;55.80;;;;;;5093590;28;20047;-67
2023/05/14 02:59:43;;;;;;;7.68;5.90;;;22.50;55.90;;;;;;5092204;28;20032;-67
2023/05/14 03:02:09;;;;;;;10.38;6.28;;;22.40;55.90;;;;;;5092090;28;20035;-67
2023/05/14 03:04:36;;;;;;;9.05;6.45;;;22.30;55.90;;;;;;5073996;28;20107;-67
2023/05/14 03:07:02;;;;;;;10.75;6.40;;;22.40;55.90;;;;;;5072794;28;20032;-67
2023/05/14 03:09:28;;;;;;;10.45;6.57;;;22.30;55.90;;;;;;5072692;28;20045;-67
2023/05/14 03:11:54;;;;;;;8.93;6.95;;;22.30;55.90;;;;;;5071385;28;20040;-67
2023/05/14 03:14:20;;;;;;;13.50;7.47;;;22.30;56.00;;;;;;5071559;28;20052;-67
2023/05/14 03:16:46;;;;;;;14.35;7.50;;;22.30;55.90;;;;;;5072757;28;20060;-67
2023/05/14 03:19:12;;;;;;;12.43;7.45;;;22.30;55.90;;;;;;5071301;28;20540;-67
2023/05/14 03:21:38;;;;;;;13.57;7.05;;;22.40;55.80;;;;;;5072486;28;20112;-67
2023/05/14 03:24:04;;;;;;;13.07;7.10;;;22.30;55.80;;;;;;5071582;28;20066;-67
2023/05/14 03:26:30;;;;;;;11.10;6.47;;;22.20;55.60;;;;;;5072520;28;20028;-67
2023/05/14 03:28:56;;;;;;;15.27;6.80;;;22.30;55.60;;;;;;5054368;28;20051;-67
2023/05/14 03:31:22;;;;;;;11.93;6.70;;;22.40;55.50;;;;;;5071916;28;20028;-67
2023/05/14 03:33:48;;;;;;;10.30;5.97;;;22.40;55.40;;;;;;5072308;28;20499;-66
2023/05/14 03:36:15;;;;;;;11.32;5.82;;;22.40;55.40;;;;;;5072374;28;20036;-67
2023/05/14 03:38:41;;;;;;;7.95;6.10;;;22.50;55.40;;;;;;5072665;28;20063;-67
2023/05/14 03:41:07;;;;;;;13.63;6.13;;;22.40;55.20;;;;;;5072541;28;20069;-67
2023/05/14 03:43:33;;;;;;;11.35;6.55;;;22.40;55.20;;;;;;5072375;28;20044;-67
2023/05/14 03:46:00;;;;;;;13.77;6.00;;;22.40;55.10;;;;;;5070858;28;20032;-67
2023/05/14 03:48:26;;;;;;;14.57;7.00;;;22.40;55.30;;;;;;5070697;28;20401;-67
2023/05/14 03:50:52;;;;;;;11.88;6.28;;;22.50;55.20;;;;;;5070525;28;20789;-67
2023/05/14 03:53:18;;;;;;;7.97;5.93;;;22.50;54.90;;;;;;5070841;28;20033;-67
2023/05/14 03:55:45;;;;;;;10.40;5.63;;;22.50;54.70;;;;;;5070713;28;20370;-68
2023/05/14 03:58:13;;;;;;;10.65;5.88;;;22.70;54.70;;;;;;5072216;28;20059;-67
2023/05/14 04:00:41;;;;;;;9.20;5.85;;;22.80;54.40;;;;;;5070476;28;20055;-67
2023/05/14 04:03:07;;;;;;;8.70;5.85;;;22.80;54.20;;;;;;5070477;28;20431;-67
2023/05/14 04:05:34;;;;;;;11.75;6.07;;;22.90;54.10;;;;;;5074741;28;20116;-67
2023/05/14 04:08:00;;;;;;;11.40;6.32;;;22.80;54.10;;;;;;5071793;28;20127;-66
2023/05/14 04:10:27;;;;;;;8.25;5.28;;;22.90;54.30;;;;;;5070238;28;20073;-69
2023/05/14 04:12:54;;;;;;;7.75;5.03;;;23.00;56.90;;;;;;5070640;28;20070;-70
2023/05/14 04:15:21;;;;;;;13.40;5.70;;;23.20;58.10;;;;;;5037720;28;20047;-69
2023/05/14 04:17:47;;;;;;;7.57;5.15;;;23.70;62.10;;;;;;5053520;28;20404;-70
2023/05/14 04:20:13;;;;;;;12.23;5.85;;;23.90;59.00;;;;;;5071681;28;20068;-71
2023/05/14 04:22:39;;;;;;;12.95;5.82;;;23.90;59.20;;;;;;5070602;28;20039;-71
2023/05/14 04:25:06;;;;;;;10.13;5.80;;;23.90;55.10;;;;;;5071826;28;20024;-71
2023/05/14 04:27:33;;;;;;;7.63;4.63;;;23.80;54.30;;;;;;5070320;28;20059;-67
2023/05/14 04:29:59;;;;;;;12.98;5.43;;;23.80;53.00;;;;;;5071567;28;20028;-67
2023/05/14 04:32:25;;;;;;;7.95;4.47;;;23.70;52.80;;;;;;5085440;28;20118;-67
2023/05/14 04:34:51;;;;;;;11.90;5.18;;;23.70;52.90;;;;;;5091827;28;20082;-66
2023/05/14 04:37:17;;;;;;;7.90;3.85;;;23.90;53.20;;;;;;5091593;28;20032;-66
2023/05/14 04:39:43;;;;;;;8.52;5.15;;;23.70;53.20;;;;;;5090267;28;20093;-66
2023/05/14 04:42:10;;;;;;;13.95;5.95;;;23.60;53.30;;;;;;5091570;28;20039;-66
2023/05/14 04:44:36;;;;;;;10.10;4.88;;;23.70;53.70;;;;;;5091452;28;20035;-66
2023/05/14 04:47:03;;;;;;;4.93;3.58;;;23.80;54.00;;;;;;5090034;28;20352;-66
2023/05/14 04:49:30;;;;;;;6.50;4.40;;;23.70;54.20;;;;;;5089930;28;20127;-67
2023/05/14 04:51:56;;;;;;;7.38;5.00;;;23.70;54.60;;;;;;5091522;28;20036;-67
2023/05/14 04:54:22;;;;;;;10.50;5.47;;;23.70;54.70;;;;;;5091265;28;20111;-67
2023/05/14 04:56:48;;;;;;;12.02;4.30;;;23.80;54.60;;;;;;5089933;28;20404;-67
2023/05/14 04:59:15;;;;;;;9.10;6.10;;;23.70;54.40;;;;;;5089716;28;20051;-68
2023/05/14 05:01:41;;;;;;;10.07;6.15;;;23.80;53.50;;;;;;5073074;28;20036;-67
2023/05/14 05:04:07;;;;;;;10.50;4.95;;;23.70;50.80;;;;;;5071548;28;20029;-67
2023/05/14 05:06:33;;;;;;;8.70;4.63;;;23.50;49.60;;;;;;5070959;28;20033;-66
2023/05/14 05:08:59;;;;;;;5.78;4.22;;;23.50;51.10;;;;;;5089644;28;20050;-66
2023/05/14 05:11:25;;;;;;;7.85;4.88;;;23.50;49.90;;;;;;5071442;28;20137;-67
2023/05/14 05:13:51;;;;;;;9.73;4.93;;;23.70;49.80;;;;;;5088292;28;20079;-68
2023/05/14 05:16:17;;;;;;;7.07;5.03;;;23.60;48.60;;;;;;5088393;28;20078;-68
2023/05/14 05:18:44;;;;;;;9.07;5.18;;;23.60;47.80;;;;;;5088043;28;20040;-69
2023/05/14 05:21:10;;;;;;;10.25;5.47;;;23.50;49.00;;;;;;5071467;28;20400;-68
2023/05/14 05:23:36;;;;;;;10.05;5.60;;;23.70;48.40;;;;;;5088359;28;20036;-68
2023/05/14 05:26:02;;;;;;;9.75;5.97;;;23.60;48.50;;;;;;5088311;28;20580;-68
2023/05/14 05:28:28;;;;;;;8.75;5.22;;;23.50;47.30;;;;;;5054314;28;20084;-68
2023/05/14 05:30:54;;;;;;;10.15;5.40;;;23.50;48.00;;;;;;5088317;28;20127;-68
2023/05/14 05:33:20;;;;;;;11.50;6.38;;;23.40;47.30;;;;;;5088292;28;20144;-68
2023/05/14 05:35:47;;;;;;;7.63;4.90;;;23.50;47.20;;;;;;5071649;28;20176;-68
2023/05/14 05:38:14;;;;;;;8.57;5.03;;;23.60;48.00;;;;;;5071610;28;20116;-69
2023/05/14 05:40:40;;;;;;;10.70;5.35;;;23.50;48.10;;;;;;5074374;28;20559;-67
2023/05/14 05:43:06;;;;;;;8.90;5.35;;;23.50;47.10;;;;;;5070602;28;20028;-67
2023/05/14 05:45:32;;;;;;;7.65;5.25;;;23.50;47.20;;;;;;5070740;28;20127;-67
2023/05/14 05:47:59;;;;;;;8.80;6.13;;;23.60;51.50;;;;;;5070519;28;20075;-68
2023/05/14 05:50:25;;;;;;;10.18;5.88;;;23.60;52.70;;;;;;5070372;28;20040;-66
2023/05/14 05:52:51;;;;;;;10.02;6.13;;;23.60;54.70;;;;;;5070806;28;20043;-67
2023/05/14 05:55:18;;;;;;;8.45;4.88;;;23.70;56.80;;;;;;5088246;28;20043;-67
2023/05/14 05:57:44;;;;;;;12.18;5.97;;;23.70;57.20;;;;;;5094655;28;20063;-67
2023/05/14 06:00:13;;;;;;;12.65;6.85;;;23.60;57.40;;;;;;5094181;28;20067;-67
2023/05/14 06:02:40;;;;;;;10.73;5.97;;;23.50;57.60;;;;;;5093171;28;20060;-67
2023/05/14 06:05:08;;;;;;;12.73;5.65;;;23.60;54.40;;;;;;5093677;28;20040;-67
2023/05/14 06:07:34;;;;;;;6.13;4.22;;;23.60;54.40;;;;;;5092809;28;20040;-67
2023/05/14 06:10:00;;;;;;;4.70;4.25;;;23.40;55.10;;;;;;5092813;28;20032;-67
2023/05/14 06:12:27;;;;;;;6.40;4.50;;;23.50;56.40;;;;;;5075923;28;20404;-67
2023/05/14 06:14:54;;;;;;;8.75;4.38;;;23.50;55.50;;;;;;5073970;28;20464;-66
2023/05/14 06:17:20;;;;;;;11.77;4.82;;;23.60;56.20;;;;;;5074043;28;20082;-66
2023/05/14 06:19:46;;;;;;;6.13;4.05;;;23.80;56.80;;;;;;5073472;28;20044;-67
2023/05/14 06:22:13;;;;;;;5.15;4.10;;;23.70;55.70;;;;;;5076556;28;20536;-67
2023/05/14 06:24:39;;;;;;;7.70;3.75;;;23.70;56.90;;;;;;5093935;28;20043;-67
2023/05/14 06:27:05;;;;;;;9.40;4.38;;;23.70;56.80;;;;;;5093922;28;20040;-67
2023/05/14 06:29:31;;;;;;;7.80;4.32;;;23.80;57.00;;;;;;5093788;28;20713;-67
2023/05/14 06:32:01;;;;;;;14.27;4.85;;;23.90;55.80;;;;;;5093808;28;20032;-67
2023/05/14 06:34:27;;;;;;;6.80;4.20;;;23.70;53.30;;;;;;5093963;28;20032;-66
2023/05/14 06:36:53;;;;;;;5.80;4.20;;;23.70;57.10;;;;;;5093745;28;20032;-67
2023/05/14 06:39:19;;;;;;;6.80;4.28;;;23.80;56.60;;;;;;5093410;28;20032;-69
2023/05/14 06:41:45;;;;;;;5.70;4.05;;;23.90;54.80;;;;;;5093176;28;20081;-68
2023/05/14 06:44:15;;;;;;;5.35;3.80;;;23.80;57.60;;;;;;5092195;28;20060;-67
2023/05/14 06:46:41;;;;;;;8.40;3.47;;;23.90;58.00;;;;;;5093742;28;20549;-66
2023/05/14 06:49:07;;;;;;;8.50;4.50;;;23.90;57.50;;;;;;5093414;28;20063;-68
2023/05/14 06:51:33;;;;;;;7.00;4.18;;;23.90;53.50;;;;;;5094077;28;20039;-68
2023/05/14 06:53:58;;;;;;;10.85;4.65;;;23.90;55.20;;;;;;5093157;28;20024;-67
2023/05/14 06:56:24;;;;;;;9.48;5.10;;;23.80;57.50;;;;;;5093245;28;20058;-67
2023/05/14 06:58:50;;;;;;;6.38;4.13;;;23.90;58.50;;;;;;5093227;28;20130;-67
2023/05/14 07:01:16;;;;;;;8.75;5.30;;;23.90;57.60;;;;;;5092961;28;20032;-68
2023/05/14 07:03:42;;;;;;;5.53;4.70;;;23.90;56.60;;;;;;5093496;28;20020;-67
2023/05/14 07:06:08;;;;;;;5.43;4.30;;;24.00;58.70;;;;;;5091560;28;20064;-69
2023/05/14 07:08:34;;;;;;;6.88;4.18;;;24.00;56.70;;;;;;5072290;28;20041;-67
2023/05/14 07:11:01;;;;;;;7.85;4.53;;;23.90;56.20;;;;;;5072673;28;20396;-67
2023/05/14 07:13:27;;;;;;;6.00;3.95;;;23.90;54.40;;;;;;5073078;28;20111;-68
2023/05/14 07:15:54;;;;;;;6.20;3.65;;;23.90;57.80;;;;;;5072631;28;20040;-68
2023/05/14 07:18:22;;;;;;;5.22;3.90;;;23.90;57.90;;;;;;5072939;28;20093;-68
2023/05/14 07:20:48;;;;;;;6.40;4.90;;;24.20;66.50;;;;;;5072609;28;20080;-67
2023/05/14 07:23:14;;;;;;;5.68;4.55;;;24.70;67.50;;;;;;5072897;28;20071;-68
2023/05/14 07:25:40;;;;;;;9.23;4.28;;;25.40;60.00;;;;;;5071507;28;20039;-69
2023/05/14 07:28:06;;;;;;;6.57;4.03;;;25.40;53.70;;;;;;5072731;28;20108;-68
2023/05/14 07:30:34;;;;;;;5.35;4.13;;;25.30;51.50;;;;;;5072693;28;20055;-68
2023/05/14 07:33:00;;;;;;;5.43;4.18;;;25.10;51.00;;;;;;5072492;28;20028;-68
2023/05/14 07:35:26;;;;;;;8.60;3.45;;;25.10;49.40;;;;;;5072456;28;20036;-68
2023/05/14 07:37:52;;;;;;;1.95;1.50;;;25.10;50.60;;;;;;5072221;28;20418;-68
2023/05/14 07:40:18;;;;;;;3.53;1.30;;;25.10;56.50;;;;;;5072149;28;20029;-65
2023/05/14 07:42:44;;;;;;;5.35;1.88;;;25.00;59.20;;;;;;5069893;28;20051;-63
2023/05/14 07:45:10;;;;;;;5.40;2.08;;;25.20;60.50;;;;;;5072283;28;20044;-66
2023/05/14 07:47:37;;;;;;;2.45;2.25;;;25.10;61.70;;;;;;5072414;28;20064;-64
2023/05/14 07:50:04;;;;;;;3.30;1.48;;;25.20;56.60;;;;;;5071962;28;20453;-65
2023/05/14 07:52:31;;;;;;;7.50;3.03;;;25.20;61.30;;;;;;5070864;28;20032;-65
2023/05/14 07:54:58;;;;;;;9.45;3.80;;;25.20;62.60;;;;;;5071894;28;20032;-64
2023/05/14 07:57:25;;;;;;;20.00;5.25;;;25.20;64.30;;;;;;5070737;28;20033;-65
2023/05/14 07:59:51;;;;;;;11.35;2.72;;;25.30;67.70;;;;;;5084097;28;20035;-67
2023/05/14 08:02:16;;;;;;;5.82;2.67;;;25.30;54.40;;;;;;5092197;28;20020;-67
2023/05/14 08:04:43;;;;;;;2.15;1.75;;;25.10;53.40;;;;;;5090492;28;20028;-67
2023/05/14 08:07:09;;;;;;;5.68;2.80;;;25.20;56.60;;;;;;5092079;28;20077;-66
2023/05/14 08:09:35;;;;;;;4.13;1.92;;;25.30;52.10;;;;;;5092181;28;20399;-66
2023/05/14 08:12:00;;;;;;;3.70;2.17;;;25.30;49.70;;;;;;5092221;28;20155;-66
2023/05/14 08:14:27;;;;;;;2.13;1.92;;;25.20;48.00;;;;;;5092061;28;20471;-67
2023/05/14 08:16:53;;;;;;;2.63;2.05;;;25.30;47.40;;;;;;5091959;28;20104;-65
2023/05/14 08:19:19;;;;;;;26.67;5.20;;;25.30;50.40;;;;;;5084053;28;20387;-67
2023/05/14 08:21:45;;;;;;;11.57;2.55;;;25.30;45.60;;;;;;5071419;28;20037;-66
2023/05/14 08:24:11;;;;;;;2.40;2.17;;;25.30;46.30;;;;;;5071611;28;20028;-64
2023/05/14 08:26:37;;;;;;;5.57;2.72;;;25.60;48.20;;;;;;5071664;28;20085;-65
2023/05/14 08:29:04;;;;;;;3.05;1.88;;;25.40;48.60;;;;;;5071616;28;20104;-66
2023/05/14 08:31:30;;;;;;;2.90;2.38;;;25.50;48.40;;;;;;5073730;28;20040;-67
2023/05/14 08:33:56;;;;;;;6.45;2.58;;;25.50;46.20;;;;;;5091584;28;20028;-66
2023/05/14 08:36:22;;;;;;;3.90;3.20;;;25.40;48.30;;;;;;5091512;28;20035;-66
2023/05/14 08:38:49;;;;;;;3.58;2.88;;;25.60;47.40;;;;;;5091606;28;20036;-66
2023/05/14 08:41:15;;;;;;;4.43;2.75;;;25.50;44.30;;;;;;5091638;28;20476;-65
2023/05/14 08:43:52;;;;;;;3.30;2.58;;;25.40;43.50;;;;;;5051717;28;20419;-66
2023/05/14 08:46:23;;;;;;;5.55;2.85;;;25.50;43.60;;;;;;5052021;28;20048;-67
2023/05/14 08:49:07;;;;;;;5.90;2.70;;;25.30;44.30;;;;;;5068385;28;20151;-68
2023/05/14 08:51:34;;;;;;;2.78;2.03;;;25.30;44.40;;;;;;5035456;28;20482;-67
2023/05/14 08:54:02;;;;;;;3.75;2.22;;;25.30;43.90;;;;;;5068830;28;20049;-66
2023/05/14 08:56:31;;;;;;;3.58;2.95;;;25.20;44.90;;;;;;5068745;28;20033;-67
2023/05/14 08:58:57;;;;;;;3.50;2.25;;;25.20;43.10;;;;;;5067077;28;20450;-67
2023/05/14 09:01:24;;;;;;;4.10;2.05;;;25.20;43.60;;;;;;5048705;28;20051;-66
2023/05/14 09:03:52;;;;;;;2.45;2.22;;;25.30;43.90;;;;;;5048282;28;20045;-67
2023/05/14 09:06:20;;;;;;;5.20;2.33;;;25.20;42.80;;;;;;5048023;28;20072;-66
2023/05/14 09:08:46;;;;;;;4.05;1.70;;;25.10;43.70;;;;;;5048221;28;20059;-64
2023/05/14 09:11:12;;;;;;;3.42;2.42;;;25.10;42.90;;;;;;5031934;28;20049;-66
2023/05/14 09:13:38;;;;;;;4.43;2.90;;;25.00;43.10;;;;;;5049582;28;20079;-65
2023/05/14 09:16:05;;;;;;;4.53;2.40;;;25.00;43.30;;;;;;5018545;28;20032;-64
2023/05/14 09:18:31;;;;;;;4.07;2.78;;;25.00;43.50;;;;;;5051586;28;20079;-64
2023/05/14 09:20:57;;;;;;;4.50;2.67;;;25.00;48.60;;;;;;5068198;28;20080;-65
2023/05/14 09:23:30;;;;;;;3.47;2.75;;;25.70;54.50;;;;;;5068312;28;20048;-65
2023/05/14 09:25:56;;;;;;;6.03;3.05;;;26.60;55.50;;;;;;5067947;28;20041;-71
2023/05/14 09:28:23;;;;;;;5.18;2.08;;;26.60;54.20;;;;;;5068065;28;20512;-68
2023/05/14 09:30:52;;;;;;;3.33;2.10;;;26.40;49.90;;;;;;5053781;28;20090;-68
2023/05/14 09:33:27;;;;;;;3.13;1.90;;;26.20;51.90;;;;;;5072222;28;20037;-67
2023/05/14 09:36:01;;;;;;;2.05;1.88;;;26.20;52.60;;;;;;5076566;28;20047;-65
2023/05/14 09:38:31;;;;;;;1.38;1.17;;;26.00;52.50;;;;;;5085840;28;20055;-67
2023/05/14 09:40:59;;;;;;;1.42;0.95;;;26.10;50.10;;;;;;5094580;28;20107;-67
2023/05/14 09:43:25;;;;;;;1.85;1.70;;;26.00;51.80;;;;;;5094994;28;20040;-68
2023/05/14 09:45:52;;;;;;;4.18;2.50;;;25.90;50.10;;;;;;5076069;28;20040;-67
2023/05/14 09:48:18;;;;;;;4.07;2.35;;;25.90;50.80;;;;;;5074629;28;20115;-67
2023/05/14 09:50:45;;;;;;;2.50;2.20;;;25.80;45.90;;;;;;5074257;28;20096;-67
2023/05/14 09:53:13;;;;;;;7.68;2.10;;;25.80;45.10;;;;;;5073976;28;20051;-67
2023/05/14 09:55:39;;;;;;;3.08;2.25;;;25.80;41.40;;;;;;5090993;28;20038;-66
2023/05/14 09:58:05;;;;;;;2.17;1.98;;;25.70;44.40;;;;;;5094242;28;20115;-67
2023/05/14 10:00:32;;;;;;;2.63;2.38;;;25.60;44.60;;;;;;5094327;28;20412;-66
2023/05/14 10:03:04;;;;;;;4.45;2.72;;;25.60;44.90;;;;;;5094466;28;20081;-67
2023/05/14 10:05:38;;;;;;;7.32;2.85;;;25.60;45.40;;;;;;5094646;28;20027;-67
2023/05/14 10:08:25;;;;;;;4.38;2.60;;;25.40;45.20;;;;;;5093997;28;20036;-67
2023/05/14 10:10:53;;;;;;;3.38;2.75;;;25.40;42.80;;;;;;5080879;28;20041;-66
2023/05/14 10:13:27;;;;;;;3.63;2.90;;;25.50;42.70;;;;;;5073823;28;20067;-66
2023/05/14 10:16:02;;;;;;;4.13;2.85;;;25.30;44.30;;;;;;5073663;28;20072;-66
2023/05/14 10:18:34;;;;;;;1.27;1.00;;;25.30;45.70;;;;;;5073877;28;20066;-66
2023/05/14 10:21:05;;;;;;;2.03;1.87;;;25.30;46.00;;;;;;5073770;28;20061;-67
2023/05/14 10:23:32;;;;;;;2.78;2.42;;;25.20;46.60;;;;;;5073864;28;20787;-67
2023/05/14 10:25:59;;;;;;;7.22;3.85;;;25.30;46.80;;;;;;5073572;28;20149;-66
2023/05/14 10:28:25;;;;;;;1.35;1.20;;;25.30;44.10;;;;;;5077870;28;20036;-66
2023/05/14 10:30:52;;;;;;;3.15;2.08;;;25.20;47.40;;;;;;5093768;28;20040;-67
2023/05/14 10:33:19;;;;;;;5.28;2.85;;;25.10;47.30;;;;;;5093375;28;20039;-66
2023/05/14 10:36:06;;;;;;;1.95;1.60;;;25.00;47.70;;;;;;5093698;28;20051;-66
2023/05/14 10:38:34;;;;;;;3.30;2.50;;;25.10;47.60;;;;;;5076559;28;20043;-66
2023/05/14 10:41:02;;;;;;;5.70;2.88;;;24.90;47.80;;;;;;5077548;28;20036;-66
2023/05/14 10:43:29;;;;;;;16.70;2.97;;;24.90;45.10;;;;;;5093816;28;20032;-66
2023/05/14 10:45:57;;;;;;;2.90;1.95;;;25.00;46.00;;;;;;5092608;28;20372;-67
2023/05/14 10:48:24;;;;;;;3.85;2.08;;;24.90;48.30;;;;;;5093897;28;20040;-66
2023/05/14 10:50:51;;;;;;;1.48;1.23;;;24.80;49.00;;;;;;5092458;28;20349;-66
2023/05/14 10:53:17;;;;;;;4.18;2.58;;;24.80;49.20;;;;;;5090620;28;20055;-66
2023/05/14 10:55:44;;;;;;;0.40;0.40;;;24.80;49.80;;;;;;5090530;28;20067;-67
2023/05/14 10:58:11;;;;;;;1.98;1.23;;;24.70;50.10;;;;;;5090484;28;20105;-67
2023/05/14 11:00:38;;;;;;;4.93;3.58;;;24.70;50.00;;;;;;5090860;28;20028;-67
2023/05/14 11:03:05;;;;;;;4.07;3.03;;;24.70;50.30;;;;;;5090970;28;20097;-67
2023/05/14 11:05:34;;;;;;;3.47;2.35;;;24.80;49.40;;;;;;5090905;28;20455;-67
2023/05/14 11:08:04;;;;;;;0.73;0.73;;;24.70;49.50;;;;;;5090435;28;20657;-68
2023/05/14 11:10:31;;;;;;;2.38;1.75;;;24.60;49.40;;;;;;5080509;28;20043;-67
2023/05/14 11:12:57;;;;;;;1.88;1.60;;;24.60;53.30;;;;;;5090583;28;20043;-68
2023/05/14 11:15:25;;;;;;;3.00;2.03;;;24.70;53.70;;;;;;5090683;28;20024;-70
2023/05/14 11:17:52;;;;;;;4.05;2.35;;;24.60;51.80;;;;;;5090381;28;20137;-66
2023/05/14 11:20:19;;;;;;;2.28;1.35;;;24.70;52.20;;;;;;5090380;28;20064;-67
2023/05/14 11:22:47;;;;;;;20.90;2.85;;;24.50;51.60;;;;;;5090576;28;20415;-67
2023/05/14 11:25:13;;;;;;;5.90;2.60;;;24.50;51.70;;;;;;5092291;28;20047;-69
2023/05/14 11:27:41;;;;;;;3.72;2.60;;;24.60;50.90;;;;;;5092944;28;20036;-68
2023/05/14 11:30:25;;;;;;;6.35;1.90;;;24.60;49.00;;;;;;5092983;28;20164;-69
2023/05/14 11:32:53;;;;;;;3.25;1.83;;;24.50;50.60;;;;;;5092887;28;20395;-69
2023/05/14 11:35:19;;;;;;;3.25;1.58;;;24.70;50.40;;;;;;5091505;28;20036;-69
2023/05/14 11:37:51;;;;;;;3.88;2.78;;;24.70;50.40;;;;;;5092637;28;20075;-68
2023/05/14 11:40:18;;;;;;;1.10;1.02;;;24.60;50.00;;;;;;5092604;28;20162;-69
2023/05/14 11:42:44;;;;;;;3.20;2.30;;;24.60;49.50;;;;;;5091647;28;20024;-69
2023/05/14 11:45:11;;;;;;;3.72;2.53;;;24.70;49.90;;;;;;5092840;28;20089;-69
2023/05/14 11:47:38;;;;;;;1.65;1.48;;;24.70;49.80;;;;;;5092408;28;20031;-69
2023/05/14 11:50:04;;;;;;;3.50;2.55;;;24.70;49.80;;;;;;5092473;28;20028;-70
2023/05/14 11:52:30;;;;;;;3.65;2.95;;;24.70;49.70;;;;;;5090859;28;20448;-69
2023/05/14 11:54:56;;;;;;;1.73;1.50;;;24.70;48.90;;;;;;5092663;28;20063;-69
2023/05/14 11:57:22;;;;;;;2.55;2.10;;;24.70;49.50;;;;;;5092083;28;20035;-69
2023/05/14 11:59:58;;;;;;;3.65;2.13;;;24.70;46.00;;;;;;5092352;28;20032;-69
2023/05/14 12:02:27;;;;;;;1.85;1.50;;;24.80;45.20;;;;;;5092282;28;20028;-69
2023/05/14 12:04:54;;;;;;;1.75;0.93;;;24.60;48.70;;;;;;5092343;28;20107;-69
2023/05/14 12:07:19;;;;;;;3.67;1.75;;;24.70;49.00;;;;;;5092220;28;20118;-69
2023/05/14 12:09:50;;;;;;;2.72;1.92;;;24.70;49.10;;;;;;5092546;28;20065;-69
2023/05/14 12:12:21;;;;;;;3.38;2.53;;;24.70;48.40;;;;;;5091167;28;20390;-69
2023/05/14 12:14:48;;;;;;;3.30;2.30;;;24.80;43.00;;;;;;5092132;28;20058;-69
2023/05/14 12:17:19;;;;;;;3.35;2.15;;;24.70;46.60;;;;;;5091929;28;20036;-69
2023/05/14 12:19:49;;;;;;;0.88;0.88;;;24.80;48.60;;;;;;5090728;28;20043;-69
2023/05/14 12:22:20;;;;;;;3.40;2.00;;;24.80;48.80;;;;;;5088134;28;20059;-70
2023/05/14 12:24:53;;;;;;;2.28;1.92;;;24.80;48.80;;;;;;5092002;28;20028;-69
2023/05/14 12:27:22;;;;;;;6.25;3.30;;;24.80;48.80;;;;;;5092089;28;20093;-69
2023/05/14 12:29:52;;;;;;;4.30;2.53;;;24.70;48.10;;;;;;5090490;28;20031;-70
2023/05/14 12:32:18;;;;;;;3.08;1.70;;;24.80;46.30;;;;;;5091058;28;20495;-69
2023/05/14 12:34:45;;;;;;;4.80;2.80;;;24.80;47.40;;;;;;5091870;28;20036;-69
2023/05/14 12:37:10;;;;;;;2.67;2.10;;;24.80;48.20;;;;;;5091795;28;20040;-69
2023/05/14 12:39:36;;;;;;;4.07;2.17;;;24.80;44.90;;;;;;5091285;28;20034;-69
2023/05/14 12:42:02;;;;;;;5.10;3.00;;;24.80;47.30;;;;;;5091584;28;20024;-69
2023/05/14 12:44:29;;;;;;;3.67;2.30;;;24.80;45.00;;;;;;5091791;28;20024;-69